createdAt,value
2023-10-26T00:00:50.392Z,16.67
2023-10-26T00:01:52.680Z,16.67
2023-10-26T00:02:56.129Z,16.66
2023-10-26T00:03:58.772Z,16.66
2023-10-26T00:05:02.167Z,16.65
2023-10-26T00:06:06.092Z,16.65
2023-10-26T00:07:09.333Z,16.64
2023-10-26T00:08:11.548Z,16.64
2023-10-26T00:09:14.730Z,16.63
2023-10-26T00:10:17.250Z,16.63
2023-10-26T00:11:20.442Z,16.63
2023-10-26T00:12:22.806Z,16.63
2023-10-26T00:13:25.160Z,16.63
2023-10-26T00:14:28.397Z,16.64
2023-10-26T00:15:30.575Z,16.64
2023-10-26T00:16:33.782Z,16.64
2023-10-26T00:17:36.163Z,16.64
2023-10-26T00:18:39.456Z,16.64
2023-10-26T00:19:41.740Z,16.63
2023-10-26T00:20:46.580Z,16.63
2023-10-26T00:21:50.155Z,16.63
2023-10-26T00:22:53.301Z,16.64
2023-10-26T00:23:55.459Z,16.64
2023-10-26T00:24:58.657Z,16.63
2023-10-26T00:26:00.810Z,16.63
2023-10-26T00:27:04.093Z,16.63
2023-10-26T00:28:06.323Z,16.63
2023-10-26T00:29:09.501Z,16.63
2023-10-26T00:30:12.915Z,16.63
2023-10-26T00:31:16.277Z,16.62
2023-10-26T00:32:18.811Z,16.62
2023-10-26T00:33:22.070Z,16.62
2023-10-26T00:34:24.394Z,16.61
2023-10-26T00:35:27.604Z,16.61
2023-10-26T00:36:30.880Z,16.60
2023-10-26T00:37:35.460Z,16.60
2023-10-26T00:38:37.695Z,16.60
2023-10-26T00:39:40.899Z,16.60
2023-10-26T00:40:43.131Z,16.59
2023-10-26T00:41:46.263Z,16.58
2023-10-26T00:42:48.455Z,16.58
2023-10-26T00:43:52.694Z,16.57
2023-10-26T00:44:57.873Z,16.57
2023-10-26T00:46:01.351Z,16.57
2023-10-26T00:47:03.847Z,16.56
2023-10-26T00:48:08.137Z,16.55
2023-10-26T00:49:13.656Z,16.54
2023-10-26T00:50:17.087Z,16.54
2023-10-26T00:51:19.852Z,16.53
2023-10-26T00:52:24.239Z,16.53
2023-10-26T00:53:28.748Z,16.53
2023-10-26T00:54:32.155Z,16.52
2023-10-26T00:55:35.479Z,16.52
2023-10-26T00:56:38.249Z,16.51
2023-10-26T00:57:41.698Z,16.51
2023-10-26T00:58:44.360Z,16.50
2023-10-26T00:59:48.228Z,16.50
2023-10-26T01:00:51.081Z,16.50
2023-10-26T01:01:54.701Z,16.49
2023-10-26T01:02:57.075Z,16.48
2023-10-26T01:04:02.264Z,16.48
2023-10-26T01:05:05.197Z,16.47
2023-10-26T01:06:09.756Z,16.46
2023-10-26T01:07:11.975Z,16.46
2023-10-26T01:08:15.184Z,16.46
2023-10-26T01:09:19.094Z,16.45
2023-10-26T01:10:22.258Z,16.45
2023-10-26T01:11:24.644Z,16.45
2023-10-26T01:12:28.712Z,16.45
2023-10-26T01:13:31.787Z,16.45
2023-10-26T01:14:34.069Z,16.45
2023-10-26T01:15:37.313Z,16.44
2023-10-26T01:16:40.588Z,16.44
2023-10-26T01:17:43.864Z,16.44
2023-10-26T01:18:46.189Z,16.44
2023-10-26T01:19:50.051Z,16.44
2023-10-26T01:20:52.367Z,16.44
2023-10-26T01:21:57.523Z,16.44
2023-10-26T01:23:00.338Z,16.44
2023-10-26T01:24:03.560Z,16.44
2023-10-26T01:25:06.537Z,16.44
2023-10-26T01:26:09.594Z,16.44
2023-10-26T01:27:11.813Z,16.44
2023-10-26T01:28:15.044Z,16.44
2023-10-26T01:29:17.134Z,16.43
2023-10-26T01:30:19.369Z,16.43
2023-10-26T01:31:22.602Z,16.43
2023-10-26T01:32:27.521Z,16.43
2023-10-26T01:33:30.791Z,16.43
2023-10-26T01:34:33.094Z,16.43
2023-10-26T01:35:42.459Z,16.43
2023-10-26T01:36:44.806Z,16.42
2023-10-26T01:37:49.375Z,16.42
2023-10-26T01:38:51.566Z,16.42
2023-10-26T01:39:54.710Z,16.42
2023-10-26T01:40:56.863Z,16.42
2023-10-26T01:42:00.216Z,16.41
2023-10-26T01:43:02.411Z,16.41
2023-10-26T01:44:05.708Z,16.40
2023-10-26T01:45:09.670Z,16.40
2023-10-26T01:46:12.908Z,16.40
2023-10-26T01:47:15.100Z,16.39
2023-10-26T01:48:18.430Z,16.37
2023-10-26T01:49:20.861Z,16.37
2023-10-26T01:50:23.151Z,16.36
2023-10-26T01:51:26.414Z,16.34
2023-10-26T01:52:28.658Z,16.33
2023-10-26T01:53:33.267Z,16.33
2023-10-26T01:54:35.478Z,16.32
2023-10-26T01:55:38.694Z,16.31
2023-10-26T01:56:40.901Z,16.30
2023-10-26T01:57:44.054Z,16.29
2023-10-26T01:58:46.380Z,16.28
2023-10-26T01:59:49.547Z,16.26
2023-10-26T02:00:51.813Z,16.25
2023-10-26T02:01:55.028Z,16.25
2023-10-26T02:02:57.463Z,16.23
2023-10-26T02:04:00.731Z,16.23
2023-10-26T02:05:03.218Z,16.22
2023-10-26T02:06:07.424Z,16.20
2023-10-26T02:07:09.749Z,16.19
2023-10-26T02:08:12.962Z,16.19
2023-10-26T02:09:16.668Z,16.18
2023-10-26T02:10:20.181Z,16.17
2023-10-26T02:11:23.346Z,16.15
2023-10-26T02:12:26.119Z,16.14
2023-10-26T02:13:29.414Z,16.12
2023-10-26T02:14:31.603Z,16.10
2023-10-26T02:15:33.844Z,16.10
2023-10-26T02:16:37.073Z,16.09
2023-10-26T02:17:39.291Z,16.08
2023-10-26T02:18:44.265Z,16.07
2023-10-26T02:19:46.655Z,16.06
2023-10-26T02:20:49.943Z,16.04
2023-10-26T02:21:52.188Z,16.04
2023-10-26T02:22:55.395Z,16.03
2023-10-26T02:23:57.624Z,16.02
2023-10-26T02:25:02.235Z,16.01
2023-10-26T02:26:04.807Z,16.01
2023-10-26T02:27:08.049Z,16.00
2023-10-26T02:28:15.034Z,15.99
2023-10-26T02:29:18.297Z,15.98
2023-10-26T02:30:20.549Z,15.97
2023-10-26T02:31:23.825Z,15.96
2023-10-26T02:32:26.165Z,15.94
2023-10-26T02:33:29.449Z,15.93
2023-10-26T02:34:31.678Z,15.92
2023-10-26T02:35:33.934Z,15.91
2023-10-26T02:36:37.119Z,15.90
2023-10-26T02:37:39.644Z,15.89
2023-10-26T02:38:42.806Z,15.89
2023-10-26T02:39:45.127Z,15.88
2023-10-26T02:40:49.619Z,15.86
2023-10-26T02:41:51.919Z,15.85
2023-10-26T02:42:55.072Z,15.85
2023-10-26T02:43:57.307Z,15.84
2023-10-26T02:45:00.784Z,15.83
2023-10-26T02:46:05.831Z,15.83
2023-10-26T02:47:09.114Z,15.82
2023-10-26T02:48:11.357Z,15.80
2023-10-26T02:49:14.669Z,15.79
2023-10-26T02:50:16.988Z,15.78
2023-10-26T02:51:20.261Z,15.77
2023-10-26T02:52:22.534Z,15.76
2023-10-26T02:53:24.726Z,15.76
2023-10-26T02:54:28.604Z,15.74
2023-10-26T02:55:30.883Z,15.73
2023-10-26T02:56:35.446Z,15.73
2023-10-26T02:57:37.608Z,15.72
2023-10-26T02:58:40.755Z,15.71
2023-10-26T02:59:42.914Z,15.70
2023-10-26T03:00:45.133Z,15.68
2023-10-26T03:01:48.249Z,15.68
2023-10-26T03:02:50.530Z,15.67
2023-10-26T03:03:53.822Z,15.66
2023-10-26T03:04:56.071Z,15.65
2023-10-26T03:06:00.746Z,15.65
2023-10-26T03:07:02.934Z,15.64
2023-10-26T03:08:05.536Z,15.63
2023-10-26T03:09:10.351Z,15.63
2023-10-26T03:10:12.617Z,15.62
2023-10-26T03:11:15.787Z,15.61
2023-10-26T03:12:20.449Z,15.61
2023-10-26T03:13:23.677Z,15.60
2023-10-26T03:14:25.936Z,15.59
2023-10-26T03:15:29.241Z,15.58
2023-10-26T03:16:31.606Z,15.58
2023-10-26T03:17:34.868Z,15.57
2023-10-26T03:18:37.488Z,15.57
2023-10-26T03:19:40.662Z,15.56
2023-10-26T03:20:42.894Z,15.56
2023-10-26T03:21:46.073Z,15.56
2023-10-26T03:22:48.271Z,15.55
2023-10-26T03:23:53.861Z,15.55
2023-10-26T03:24:56.062Z,15.53
2023-10-26T03:26:01.130Z,15.52
2023-10-26T03:27:03.454Z,15.51
2023-10-26T03:28:08.045Z,15.50
2023-10-26T03:29:10.258Z,15.50
2023-10-26T03:30:13.920Z,15.49
2023-10-26T03:31:16.229Z,15.49
2023-10-26T03:32:18.456Z,15.47
2023-10-26T03:33:21.728Z,15.46
2023-10-26T03:34:23.974Z,15.46
2023-10-26T03:35:27.185Z,15.45
2023-10-26T03:36:29.378Z,15.45
2023-10-26T03:37:32.758Z,15.44
2023-10-26T03:38:34.914Z,15.43
2023-10-26T03:39:40.759Z,15.43
2023-10-26T03:40:42.937Z,15.42
2023-10-26T03:41:46.153Z,15.41
2023-10-26T03:42:48.318Z,15.41
2023-10-26T03:43:52.863Z,15.40
2023-10-26T03:44:55.149Z,15.39
2023-10-26T03:45:58.335Z,15.39
2023-10-26T03:47:00.834Z,15.38
2023-10-26T03:48:04.407Z,15.38
2023-10-26T03:49:06.667Z,15.37
2023-10-26T03:50:10.183Z,15.36
2023-10-26T03:51:12.418Z,15.36
2023-10-26T03:52:15.658Z,15.35
2023-10-26T03:53:17.904Z,15.35
2023-10-26T03:54:21.141Z,15.34
2023-10-26T03:55:23.557Z,15.33
2023-10-26T03:56:26.697Z,15.32
2023-10-26T03:57:28.880Z,15.30
2023-10-26T03:58:32.079Z,15.30
2023-10-26T03:59:35.579Z,15.29
2023-10-26T04:00:38.727Z,15.28
2023-10-26T04:01:40.983Z,15.27
2023-10-26T04:02:44.206Z,15.26
2023-10-26T04:03:46.424Z,15.25
2023-10-26T04:04:51.741Z,15.24
2023-10-26T04:05:54.052Z,15.23
2023-10-26T04:06:57.249Z,15.23
2023-10-26T04:08:02.207Z,15.23
2023-10-26T04:09:05.412Z,15.22
2023-10-26T04:10:08.925Z,15.21
2023-10-26T04:11:17.911Z,15.21
2023-10-26T04:12:20.148Z,15.21
2023-10-26T04:13:23.503Z,15.21
2023-10-26T04:14:25.758Z,15.21
2023-10-26T04:15:30.489Z,15.21
2023-10-26T04:16:32.823Z,15.21
2023-10-26T04:17:36.107Z,15.22
2023-10-26T04:18:38.442Z,15.22
2023-10-26T04:19:41.734Z,15.22
2023-10-26T04:20:44.050Z,15.23
2023-10-26T04:21:47.250Z,15.23
2023-10-26T04:22:49.458Z,15.24
2023-10-26T04:23:52.585Z,15.24
2023-10-26T04:24:54.724Z,15.24
2023-10-26T04:25:56.956Z,15.23
2023-10-26T04:27:00.669Z,15.23
2023-10-26T04:28:02.906Z,15.23
2023-10-26T04:29:08.226Z,15.23
2023-10-26T04:30:11.135Z,15.23
2023-10-26T04:31:16.608Z,15.23
2023-10-26T04:32:18.873Z,15.23
2023-10-26T04:33:22.143Z,15.23
2023-10-26T04:34:24.306Z,15.23
2023-10-26T04:35:27.543Z,15.23
2023-10-26T04:36:29.748Z,15.23
2023-10-26T04:37:33.065Z,15.23
2023-10-26T04:38:35.502Z,15.23
2023-10-26T04:39:38.850Z,15.23
2023-10-26T04:40:42.723Z,15.22
2023-10-26T04:41:45.992Z,15.22
2023-10-26T04:42:48.187Z,15.22
2023-10-26T04:43:51.346Z,15.22
2023-10-26T04:44:53.549Z,15.21
2023-10-26T04:45:56.733Z,15.21
2023-10-26T04:47:00.350Z,15.20
2023-10-26T04:48:04.476Z,15.19
2023-10-26T04:49:06.813Z,15.19
2023-10-26T04:50:11.318Z,15.19
2023-10-26T04:51:13.654Z,15.18
2023-10-26T04:52:19.597Z,15.18
2023-10-26T04:53:21.772Z,15.18
2023-10-26T04:54:25.344Z,15.18
2023-10-26T04:55:31.665Z,15.19
2023-10-26T04:56:35.120Z,15.19
2023-10-26T04:57:37.571Z,15.19
2023-10-26T04:58:40.715Z,15.20
2023-10-26T04:59:42.846Z,15.20
2023-10-26T05:00:46.023Z,15.21
2023-10-26T05:01:48.336Z,15.21
2023-10-26T05:02:52.898Z,15.22
2023-10-26T05:03:55.089Z,15.23
2023-10-26T05:04:58.212Z,15.23
2023-10-26T05:06:00.538Z,15.24
2023-10-26T05:07:04.016Z,15.24
2023-10-26T05:08:07.211Z,15.25
2023-10-26T05:09:09.507Z,15.25
2023-10-26T05:10:12.837Z,15.25
2023-10-26T05:11:15.792Z,15.25
2023-10-26T05:12:19.074Z,15.24
2023-10-26T05:13:21.283Z,15.25
2023-10-26T05:14:24.456Z,15.25
2023-10-26T05:15:26.920Z,15.25
2023-10-26T05:16:30.191Z,15.26
2023-10-26T05:17:32.420Z,15.26
2023-10-26T05:18:36.014Z,15.27
2023-10-26T05:19:39.326Z,15.27
2023-10-26T05:20:41.521Z,15.28
2023-10-26T05:21:44.690Z,15.28
2023-10-26T05:22:46.965Z,15.27
2023-10-26T05:23:50.165Z,15.27
2023-10-26T05:24:52.477Z,15.28
2023-10-26T05:25:55.724Z,15.28
2023-10-26T05:26:58.241Z,15.28
2023-10-26T05:28:01.831Z,15.28
2023-10-26T05:29:04.562Z,15.28
2023-10-26T05:30:09.141Z,15.28
2023-10-26T05:31:11.396Z,15.28
2023-10-26T05:32:15.005Z,15.29
2023-10-26T05:33:17.344Z,15.29
2023-10-26T05:34:22.525Z,15.30
2023-10-26T05:35:25.009Z,15.30
2023-10-26T05:36:27.257Z,15.32
2023-10-26T05:37:30.500Z,15.32
2023-10-26T05:38:32.720Z,15.33
2023-10-26T05:39:35.906Z,15.34
2023-10-26T05:40:38.166Z,15.35
2023-10-26T05:41:41.244Z,15.36
2023-10-26T05:42:43.494Z,15.38
2023-10-26T05:43:46.628Z,15.39
2023-10-26T05:44:48.951Z,15.40
2023-10-26T05:45:52.467Z,15.41
2023-10-26T05:46:54.685Z,15.42
2023-10-26T05:48:00.808Z,15.44
2023-10-26T05:49:03.004Z,15.45
2023-10-26T05:50:08.876Z,15.46
2023-10-26T05:51:11.049Z,15.47
2023-10-26T05:52:14.237Z,15.48
2023-10-26T05:53:16.831Z,15.49
2023-10-26T05:54:22.969Z,15.49
2023-10-26T05:55:26.037Z,15.50
2023-10-26T05:56:28.180Z,15.50
2023-10-26T05:57:34.439Z,15.51
2023-10-26T05:58:37.591Z,15.52
2023-10-26T05:59:41.334Z,15.52
2023-10-26T06:00:47.756Z,15.53
2023-10-26T06:02:06.617Z,15.53
2023-10-26T06:03:08.894Z,15.54
2023-10-26T06:04:12.291Z,15.55
2023-10-26T06:05:16.518Z,15.56
2023-10-26T06:06:32.340Z,15.55
2023-10-26T06:07:34.592Z,15.56
2023-10-26T06:08:37.846Z,15.56
2023-10-26T06:09:39.966Z,15.56
2023-10-26T06:10:43.244Z,15.57
2023-10-26T06:11:45.410Z,15.58
2023-10-26T06:12:48.578Z,15.58
2023-10-26T06:13:50.746Z,15.59
2023-10-26T06:14:53.834Z,15.59
2023-10-26T06:15:56.066Z,15.60
2023-10-26T06:16:59.308Z,15.60
2023-10-26T06:18:01.646Z,15.60
2023-10-26T06:19:04.826Z,15.61
2023-10-26T06:20:08.955Z,15.62
2023-10-26T06:21:14.385Z,15.63
2023-10-26T06:22:16.694Z,15.64
2023-10-26T06:23:19.847Z,15.65
2023-10-26T06:24:22.171Z,15.66
2023-10-26T06:25:26.778Z,15.67
2023-10-26T06:26:29.274Z,15.68
2023-10-26T06:27:32.584Z,15.69
2023-10-26T06:28:34.818Z,15.71
2023-10-26T06:29:38.103Z,15.72
2023-10-26T06:30:40.615Z,15.74
2023-10-26T06:31:43.908Z,15.75
2023-10-26T06:32:46.214Z,15.76
2023-10-26T06:33:49.516Z,15.78
2023-10-26T06:34:51.979Z,15.81
2023-10-26T06:35:55.254Z,15.83
2023-10-26T06:36:58.831Z,15.84
2023-10-26T06:38:01.998Z,15.86
2023-10-26T06:39:04.331Z,15.88
2023-10-26T06:40:08.279Z,15.91
2023-10-26T06:41:11.870Z,15.93
2023-10-26T06:42:14.135Z,15.95
2023-10-26T06:43:17.723Z,15.98
2023-10-26T06:44:20.022Z,16.00
2023-10-26T06:45:23.469Z,16.02
2023-10-26T06:46:25.917Z,16.04
2023-10-26T06:47:29.264Z,16.06
2023-10-26T06:48:31.934Z,16.08
2023-10-26T06:49:35.271Z,16.10
2023-10-26T06:50:37.546Z,16.12
2023-10-26T06:51:40.785Z,16.14
2023-10-26T06:52:45.037Z,16.17
2023-10-26T06:53:48.292Z,16.19
2023-10-26T06:54:50.624Z,16.21
2023-10-26T06:55:53.086Z,16.23
2023-10-26T06:56:57.898Z,16.25
2023-10-26T06:58:00.422Z,16.27
2023-10-26T06:59:03.662Z,16.30
2023-10-26T07:00:08.059Z,16.32
2023-10-26T07:01:19.612Z,16.34
2023-10-26T07:02:23.543Z,16.37
2023-10-26T07:03:26.877Z,16.39
2023-10-26T07:04:29.206Z,16.41
2023-10-26T07:05:32.899Z,16.43
2023-10-26T07:06:35.215Z,16.45
2023-10-26T07:07:38.684Z,16.47
2023-10-26T07:08:42.547Z,16.49
2023-10-26T07:09:45.757Z,16.50
2023-10-26T07:10:48.070Z,16.51
2023-10-26T07:11:51.274Z,16.52
2023-10-26T07:12:53.574Z,16.53
2023-10-26T07:13:56.774Z,16.54
2023-10-26T07:15:00.847Z,16.55
2023-10-26T07:16:05.277Z,16.55
2023-10-26T07:17:07.650Z,16.56
2023-10-26T07:18:10.973Z,16.57
2023-10-26T07:19:13.489Z,16.57
2023-10-26T07:20:16.618Z,16.57
2023-10-26T07:21:20.400Z,16.57
2023-10-26T07:22:23.253Z,16.58
2023-10-26T07:23:27.107Z,16.58
2023-10-26T07:24:31.989Z,16.58
2023-10-26T07:25:37.077Z,16.59
2023-10-26T07:26:39.358Z,16.60
2023-10-26T07:27:42.732Z,16.61
2023-10-26T07:28:44.995Z,16.62
2023-10-26T07:29:48.690Z,16.62
2023-10-26T07:30:52.159Z,16.64
2023-10-26T07:31:56.079Z,16.65
2023-10-26T07:32:58.393Z,16.65
2023-10-26T07:34:01.710Z,16.64
2023-10-26T07:35:04.279Z,16.64
2023-10-26T07:36:09.593Z,16.64
2023-10-26T07:37:11.867Z,16.65
2023-10-26T07:38:35.510Z,16.65
2023-10-26T07:39:46.782Z,16.66
2023-10-26T07:40:51.962Z,16.66
2023-10-26T07:42:06.715Z,16.66
2023-10-26T07:43:12.580Z,16.66
2023-10-26T07:44:14.851Z,16.66
2023-10-26T07:45:18.309Z,16.66
2023-10-26T07:46:21.222Z,16.65
2023-10-26T07:47:25.396Z,16.65
2023-10-26T07:48:27.793Z,16.65
2023-10-26T07:49:31.323Z,16.66
2023-10-26T07:50:33.918Z,16.66
2023-10-26T07:51:36.170Z,16.67
2023-10-26T07:52:39.415Z,16.67
2023-10-26T07:53:41.671Z,16.67
2023-10-26T07:54:46.839Z,16.67
2023-10-26T07:55:49.224Z,16.68
2023-10-26T07:56:52.710Z,16.68
2023-10-26T07:57:55.220Z,16.68
2023-10-26T07:58:59.080Z,16.67
2023-10-26T08:00:02.267Z,16.67
2023-10-26T08:01:10.472Z,16.67
2023-10-26T08:02:12.862Z,16.67
2023-10-26T08:03:16.108Z,16.66
2023-10-26T08:04:18.327Z,16.66
2023-10-26T08:05:21.779Z,16.67
2023-10-26T08:06:25.236Z,16.67
2023-10-26T08:07:30.603Z,16.67
2023-10-26T08:08:33.047Z,16.67
2023-10-26T08:09:36.738Z,16.67
2023-10-26T08:10:40.318Z,16.67
2023-10-26T08:11:43.531Z,16.67
2023-10-26T08:12:45.785Z,16.67
2023-10-26T08:13:48.934Z,16.67
2023-10-26T08:16:06.183Z,16.66
2023-10-26T08:16:42.063Z,16.66
2023-10-26T08:17:43.695Z,16.65
2023-10-26T08:18:47.055Z,16.64
2023-10-26T08:19:53.122Z,16.63
2023-10-26T08:20:56.542Z,16.63
2023-10-26T08:21:58.845Z,16.62
2023-10-26T08:23:04.076Z,16.62
2023-10-26T08:24:06.908Z,16.61
2023-10-26T08:25:10.803Z,16.61
2023-10-26T08:26:14.253Z,16.61
2023-10-26T08:27:17.516Z,16.61
2023-10-26T08:28:19.689Z,16.61
2023-10-26T08:29:28.208Z,16.60
2023-10-26T08:30:31.279Z,16.59
2023-10-26T08:31:36.694Z,16.59
2023-10-26T08:32:39.023Z,16.59
2023-10-26T08:33:42.360Z,16.58
2023-10-26T08:34:45.997Z,16.58
2023-10-26T08:35:52.544Z,16.59
2023-10-26T08:37:11.437Z,16.59
2023-10-26T08:38:16.554Z,16.59
2023-10-26T08:39:19.181Z,16.59
2023-10-26T08:40:22.623Z,16.58
2023-10-26T08:41:26.211Z,16.58
2023-10-26T08:42:29.410Z,16.52
2023-10-26T08:43:34.828Z,16.50
2023-10-26T08:44:39.125Z,16.50
2023-10-26T08:45:42.880Z,16.51
2023-10-26T08:46:46.865Z,16.51
2023-10-26T08:47:50.300Z,16.51
2023-10-26T08:48:56.823Z,16.53
2023-10-26T08:50:15.670Z,16.55
2023-10-26T08:51:20.264Z,16.56
2023-10-26T08:52:23.565Z,16.56
2023-10-26T08:53:26.959Z,16.57
2023-10-26T08:54:29.207Z,16.57
2023-10-26T08:55:32.788Z,16.59
2023-10-26T08:56:36.413Z,16.59
2023-10-26T08:57:48.169Z,16.59
2023-10-26T08:58:53.137Z,16.59
2023-10-26T08:59:56.387Z,16.60
2023-10-26T09:00:59.167Z,16.61
2023-10-26T09:02:02.497Z,16.61
2023-10-26T09:03:07.323Z,16.61
2023-10-26T09:04:11.616Z,16.63
2023-10-26T09:05:14.316Z,16.63
2023-10-26T09:06:17.576Z,16.64
2023-10-26T09:07:26.781Z,16.66
2023-10-26T09:08:32.630Z,16.67
2023-10-26T09:09:44.939Z,16.68
2023-10-26T09:10:48.168Z,16.69
2023-10-26T09:11:51.910Z,16.70
2023-10-26T09:13:01.484Z,16.71
2023-10-26T09:14:16.657Z,16.72
2023-10-26T09:15:19.896Z,16.73
2023-10-26T09:16:36.144Z,16.72
2023-10-26T09:17:39.549Z,16.71
2023-10-26T09:18:49.659Z,16.71
2023-10-26T09:19:51.894Z,16.72
2023-10-26T09:21:06.108Z,16.72
2023-10-26T09:22:10.248Z,16.73
2023-10-26T09:23:28.694Z,16.73
2023-10-26T09:24:31.193Z,16.72
2023-10-26T09:25:34.393Z,16.72
2023-10-26T09:26:40.280Z,16.71
2023-10-26T09:27:47.050Z,16.71
2023-10-26T09:28:53.753Z,16.71
2023-10-26T09:29:57.010Z,16.71
2023-10-26T09:31:01.086Z,16.71
2023-10-26T09:32:04.495Z,16.71
2023-10-26T09:33:22.798Z,16.71
2023-10-26T09:34:26.027Z,16.72
2023-10-26T09:35:29.836Z,16.72
2023-10-26T09:36:32.165Z,16.73
2023-10-26T09:37:51.708Z,16.73
2023-10-26T09:38:54.904Z,16.75
2023-10-26T09:40:14.732Z,16.75
2023-10-26T09:41:20.346Z,16.76
2023-10-26T09:42:26.058Z,16.76
2023-10-26T09:43:29.828Z,16.75
2023-10-26T09:44:32.553Z,16.75
2023-10-26T09:45:35.832Z,16.76
2023-10-26T09:46:38.535Z,16.76
2023-10-26T09:47:42.365Z,16.77
2023-10-26T09:48:45.166Z,16.77
2023-10-26T09:49:49.680Z,16.78
2023-10-26T09:50:53.722Z,16.78
2023-10-26T09:51:57.100Z,16.78
2023-10-26T09:53:00.425Z,16.78
2023-10-26T09:54:05.474Z,16.78
2023-10-26T09:55:10.079Z,16.79
2023-10-26T09:56:19.259Z,16.79
2023-10-26T09:57:28.710Z,16.80
2023-10-26T09:58:40.058Z,16.81
2023-10-26T09:59:42.905Z,16.81
2023-10-26T10:00:46.143Z,16.82
2023-10-26T10:01:48.487Z,16.82
2023-10-26T10:03:13.185Z,16.83
2023-10-26T10:04:15.628Z,16.84
2023-10-26T10:05:43.117Z,16.85
2023-10-26T10:06:51.220Z,16.88
2023-10-26T10:07:54.569Z,16.89
2023-10-26T10:09:00.887Z,16.90
2023-10-26T10:10:07.550Z,16.91
2023-10-26T10:11:18.554Z,16.92
2023-10-26T10:12:34.179Z,16.93
2023-10-26T10:13:41.840Z,16.93
2023-10-26T10:15:15.616Z,16.94
2023-10-26T10:16:54.029Z,16.96
2023-10-26T10:18:06.374Z,16.97
2023-10-26T10:19:19.484Z,16.98
2023-10-26T10:20:28.955Z,16.99
2023-10-26T10:21:36.941Z,17.00
2023-10-26T10:22:48.714Z,17.01
2023-10-26T10:23:51.931Z,17.02
2023-10-26T10:24:54.678Z,17.03
2023-10-26T10:26:05.723Z,17.04
2023-10-26T10:27:17.183Z,17.05
2023-10-26T10:28:19.945Z,17.05
2023-10-26T10:29:24.460Z,17.06
2023-10-26T10:30:30.030Z,17.07
2023-10-26T10:31:43.742Z,17.08
2023-10-26T10:32:50.341Z,17.09
2023-10-26T10:34:12.038Z,17.09
2023-10-26T10:35:25.528Z,17.11
2023-10-26T10:36:28.833Z,17.11
2023-10-26T10:37:31.179Z,17.12
2023-10-26T10:38:34.706Z,17.13
2023-10-26T10:39:36.970Z,17.13
2023-10-26T10:40:40.766Z,17.14
2023-10-26T10:41:43.518Z,17.15
2023-10-26T10:42:49.525Z,17.15
2023-10-26T10:43:52.960Z,17.16
2023-10-26T10:44:57.774Z,17.17
2023-10-26T10:46:12.060Z,17.18
2023-10-26T10:47:14.336Z,17.20
2023-10-26T10:48:17.537Z,17.20
2023-10-26T10:49:25.069Z,17.21
2023-10-26T10:50:31.132Z,17.22
2023-10-26T10:51:35.103Z,17.22
2023-10-26T10:52:38.397Z,17.23
2023-10-26T10:53:40.899Z,17.22
2023-10-26T10:54:59.686Z,17.22
2023-10-26T10:56:05.579Z,17.23
2023-10-26T10:57:09.076Z,17.24
2023-10-26T10:58:11.445Z,17.25
2023-10-26T10:59:21.994Z,17.25
2023-10-26T11:00:26.518Z,17.26
2023-10-26T11:01:31.171Z,17.27
2023-10-26T11:02:33.593Z,17.28
2023-10-26T11:03:36.990Z,17.29
2023-10-26T11:04:59.596Z,17.30
2023-10-26T11:06:06.716Z,17.31
2023-10-26T11:07:08.978Z,17.31
2023-10-26T11:08:12.278Z,17.32
2023-10-26T11:09:26.002Z,17.33
2023-10-26T11:10:29.269Z,17.35
2023-10-26T11:11:32.808Z,17.37
2023-10-26T11:12:36.187Z,17.39
2023-10-26T11:13:38.663Z,17.41
2023-10-26T11:14:50.642Z,17.41
2023-10-26T11:15:54.584Z,17.42
2023-10-26T11:16:58.146Z,17.42
2023-10-26T11:18:01.153Z,17.44
2023-10-26T11:19:05.525Z,17.45
2023-10-26T11:20:34.946Z,17.46
2023-10-26T11:21:38.289Z,17.47
2023-10-26T11:22:40.556Z,17.49
2023-10-26T11:23:43.917Z,17.50
2023-10-26T11:24:46.984Z,17.49
2023-10-26T11:25:50.446Z,17.50
2023-10-26T11:27:09.510Z,17.50
2023-10-26T11:28:12.958Z,17.51
2023-10-26T11:29:18.500Z,17.50
2023-10-26T11:30:21.977Z,17.50
2023-10-26T11:31:42.826Z,17.49
2023-10-26T11:32:46.495Z,17.49
2023-10-26T11:33:48.749Z,17.50
2023-10-26T11:35:06.602Z,17.50
2023-10-26T11:36:10.541Z,17.51
2023-10-26T11:37:16.600Z,17.52
2023-10-26T11:38:18.980Z,17.52
2023-10-26T11:39:22.362Z,17.53
2023-10-26T11:40:30.918Z,17.54
2023-10-26T11:41:35.378Z,17.55
2023-10-26T11:42:51.546Z,17.55
2023-10-26T11:43:55.045Z,17.57
2023-10-26T11:45:00.371Z,17.58
2023-10-26T11:46:05.105Z,17.59
2023-10-26T11:47:08.989Z,17.60
2023-10-26T11:48:12.123Z,17.61
2023-10-26T11:49:14.540Z,17.62
2023-10-26T11:50:22.217Z,17.65
2023-10-26T11:51:24.952Z,17.68
2023-10-26T11:52:28.184Z,17.71
2023-10-26T11:53:30.528Z,17.74
2023-10-26T11:54:34.106Z,17.76
2023-10-26T11:55:36.347Z,17.78
2023-10-26T11:56:39.560Z,17.80
2023-10-26T11:57:41.975Z,17.82
2023-10-26T11:58:45.207Z,17.83
2023-10-26T11:59:47.557Z,17.83
2023-10-26T12:00:50.977Z,17.84
2023-10-26T12:01:53.802Z,17.86
2023-10-26T12:02:59.694Z,17.87
2023-10-26T12:04:02.071Z,17.88
2023-10-26T12:05:05.206Z,17.89
2023-10-26T12:06:08.928Z,17.91
2023-10-26T12:07:11.150Z,17.92
2023-10-26T12:08:14.345Z,17.94
2023-10-26T12:09:16.672Z,17.96
2023-10-26T12:10:22.163Z,17.98
2023-10-26T12:11:24.832Z,17.99
2023-10-26T12:12:28.214Z,18.01
2023-10-26T12:13:30.509Z,18.03
2023-10-26T12:14:33.817Z,18.05
2023-10-26T12:15:37.441Z,18.08
2023-10-26T12:16:41.561Z,18.11
2023-10-26T12:17:46.291Z,18.14
2023-10-26T12:18:49.983Z,18.17
2023-10-26T12:19:53.265Z,18.20
2023-10-26T12:20:55.493Z,18.22
2023-10-26T12:21:59.213Z,18.24
2023-10-26T12:23:01.583Z,18.27
2023-10-26T12:24:05.136Z,18.29
2023-10-26T12:25:09.055Z,18.30
2023-10-26T12:26:12.438Z,18.32
2023-10-26T12:27:17.566Z,18.33
2023-10-26T12:28:25.682Z,18.35
2023-10-26T12:29:30.231Z,18.37
2023-10-26T12:30:34.148Z,18.39
2023-10-26T12:31:36.573Z,18.40
2023-10-26T12:32:39.830Z,18.43
2023-10-26T12:33:42.643Z,18.45
2023-10-26T12:34:47.337Z,18.47
2023-10-26T12:35:50.302Z,18.50
2023-10-26T12:36:53.732Z,18.52
2023-10-26T12:37:56.576Z,18.53
2023-10-26T12:38:59.772Z,18.54
2023-10-26T12:40:02.004Z,18.55
2023-10-26T12:41:05.597Z,18.58
2023-10-26T12:42:07.875Z,18.61
2023-10-26T12:43:11.070Z,18.67
2023-10-26T12:44:13.794Z,18.72
2023-10-26T12:45:18.514Z,18.78
2023-10-26T12:46:22.106Z,18.87
2023-10-26T12:47:24.302Z,18.93
2023-10-26T12:48:27.564Z,18.98
2023-10-26T12:49:29.767Z,19.01
2023-10-26T12:50:33.822Z,19.06
2023-10-26T12:51:39.346Z,19.12
2023-10-26T12:52:42.775Z,19.19
2023-10-26T12:53:46.054Z,19.24
2023-10-26T12:54:48.284Z,19.27
2023-10-26T12:55:51.515Z,19.33
2023-10-26T12:56:53.812Z,19.36
2023-10-26T12:57:58.748Z,19.41
2023-10-26T12:59:01.579Z,19.47
2023-10-26T13:00:05.356Z,19.54
2023-10-26T13:01:07.779Z,19.59
2023-10-26T13:02:11.050Z,19.64
2023-10-26T13:03:13.291Z,19.70
2023-10-26T13:04:16.748Z,19.77
2023-10-26T13:05:19.183Z,19.83
2023-10-26T13:06:23.752Z,19.89
2023-10-26T13:07:28.319Z,19.91
2023-10-26T13:08:31.598Z,19.95
2023-10-26T13:09:33.914Z,20.00
2023-10-26T13:10:37.245Z,20.02
2023-10-26T13:11:39.568Z,20.03
2023-10-26T13:12:43.267Z,20.04
2023-10-26T13:13:45.797Z,20.06
2023-10-26T13:14:51.175Z,20.08
2023-10-26T13:16:00.218Z,20.10
2023-10-26T13:17:02.504Z,20.11
2023-10-26T13:18:05.773Z,20.13
2023-10-26T13:19:08.105Z,20.14
2023-10-26T13:20:12.704Z,20.14
2023-10-26T13:21:15.072Z,20.13
2023-10-26T13:22:19.723Z,20.12
2023-10-26T13:23:21.957Z,20.11
2023-10-26T13:24:25.147Z,20.09
2023-10-26T13:25:27.506Z,20.08
2023-10-26T13:26:30.791Z,20.06
2023-10-26T13:27:33.028Z,20.04
2023-10-26T13:28:36.291Z,20.04
2023-10-26T13:29:38.599Z,20.02
2023-10-26T13:30:41.879Z,20.00
2023-10-26T13:31:44.082Z,19.98
2023-10-26T13:32:47.367Z,19.96
2023-10-26T13:33:49.711Z,19.95
2023-10-26T13:34:52.969Z,19.95
2023-10-26T13:35:55.158Z,19.96
2023-10-26T13:37:00.483Z,19.97
2023-10-26T13:38:04.046Z,19.99
2023-10-26T13:39:07.527Z,20.01
2023-10-26T13:40:10.553Z,20.03
2023-10-26T13:41:13.896Z,20.04
2023-10-26T13:42:16.186Z,20.07
2023-10-26T13:43:19.377Z,20.10
2023-10-26T13:44:21.621Z,20.12
2023-10-26T13:45:25.905Z,20.16
2023-10-26T13:46:29.544Z,20.19
2023-10-26T13:47:32.861Z,20.22